Zim Qingdao — A8IZ2 — position and weather

sailwx.info

Track history (hours):
 
Tides and Currents Weather Stations Pressure Air Temp Water Temp Dewpoint Dewpoint Depression Visibility Wind Speed Wind Dir Waves Ship Positions

Zim Qingdao

Last reported at 2015-Jul-30 08:32 UTC. Time now 2015-Aug-04 22:01 UTC.
Position N 31°58' W 079°11'.

Length 260.61 m; beam 32.25 m; draft 12.6 m.

Type: Cargo ship. MMSI: 636012904.

Date/timePositionNaut miles runAvg speedWind from/ knotsBaromVisibWave heightAir tempDewpointWater temp
2015-Jul-30 08:32N 31°58' W 079°11'7414.6
2015-Jul-30 03:29N 31°58' W 080°38'1313.7
2015-Jul-30 02:33N 32°02' W 080°52'1110.6
2015-Jul-30 01:34N 32°05' W 081°04'5 4.9
2015-Jul-30 00:33N 32°08' W 081°08'0 0.5
2015-Jul-29 23:33N 32°08' W 081°09'0 0.0
2015-Jul-29 22:33N 32°08' W 081°09'0 0.0
2015-Jul-29 21:33N 32°08' W 081°09'0 0.0
2015-Jul-29 20:33N 32°08' W 081°09'0 0.0
2015-Jul-29 19:34N 32°08' W 081°09'0 0.0
2015-Jul-29 18:33N 32°08' W 081°09'0 0.0
2015-Jul-29 17:33N 32°08' W 081°09'0 0.0
2015-Jul-29 16:34N 32°08' W 081°09'0 0.0
2015-Jul-29 15:34N 32°08' W 081°09'0 0.0
2015-Jul-29 14:33N 32°08' W 081°09'0 0.0
2015-Jul-29 13:33N 32°08' W 081°09'0 0.0
2015-Jul-29 12:33N 32°08' W 081°09'0 0.0
2015-Jul-29 11:33N 32°08' W 081°09'0 0.0
2015-Jul-29 10:33N 32°08' W 081°09'0 0.0
2015-Jul-29 09:33N 32°08' W 081°09'0 0.0
2015-Jul-29 08:33N 32°08' W 081°09'0 0.0
2015-Jul-29 07:33N 32°08' W 081°09'0 0.0
2015-Jul-29 06:34N 32°08' W 081°09'0 0.0
2015-Jul-29 05:34N 32°08' W 081°09'0 0.0
2015-Jul-29 04:33N 32°08' W 081°09'0 0.0
2015-Jul-29 03:33N 32°08' W 081°09'0 0.0
2015-Jul-29 02:33N 32°08' W 081°09'0 0.0
2015-Jul-29 01:33N 32°08' W 081°09'0 0.0
2015-Jul-29 00:33N 32°08' W 081°09'0 0.0
2015-Jul-28 23:34N 32°08' W 081°09'0 0.0
2015-Jul-28 22:33N 32°08' W 081°09'0 0.0
2015-Jul-28 21:33N 32°08' W 081°09'0 0.0
2015-Jul-28 20:33N 32°08' W 081°09'0 0.0
2015-Jul-28 19:34N 32°08' W 081°09'0 0.0
2015-Jul-28 18:33N 32°08' W 081°09'0 0.0
2015-Jul-28 17:33N 32°08' W 081°09'5 4.7
2015-Jul-28 16:33N 32°05' W 081°05'8 7.6
2015-Jul-28 15:33N 32°03' W 080°56'1211.7
2015-Jul-28 14:33N 31°58' W 080°44'5 5.3
2015-Jul-28 13:32N 31°57' W 080°38'28415.4
2015-Jul-27 19:03N 34°31' W 075°52'1214.2
2015-Jul-27 18:12N 34°39' W 075°42'13712.8
2015-Jul-27 07:33N 36°55' W 075°56'1413.2
2015-Jul-27 06:31N 36°60' W 076°12'10 4.5
2015-Jul-27 04:17N 36°53' W 076°21'38 2.2
2015-Jul-26 11:20N 36°54' W 075°34'11116.2
2015-Jul-26 04:29N 38°31' W 074°24'1516.2
2015-Jul-26 03:34N 38°44' W 074°15'1715.9
2015-Jul-26 02:30N 38°60' W 074°07'3116.0
2015-Jul-26 00:33N 39°30' W 073°57'1615.8
2015-Jul-25 23:33N 39°45' W 073°52'1815.9
2015-Jul-25 22:25N 40°03' W 073°50'1315.6
2015-Jul-25 21:33N 40°16' W 073°49'1212.4
2015-Jul-25 20:33N 40°29' W 073°53'1313.2
2015-Jul-25 19:33N 40°39' W 074°04'4 3.7
2015-Jul-25 18:33N 40°41' W 074°08'1 0.5
2015-Jul-25 17:32N 40°41' W 074°09'0 0.0
2015-Jul-25 16:29N 40°41' W 074°09'0 0.0
2015-Jul-25 15:32N 40°41' W 074°09'0 0.0
2015-Jul-25 14:32N 40°41' W 074°09'0 0.0
2015-Jul-25 13:32N 40°41' W 074°09'0 0.0
2015-Jul-25 12:32N 40°41' W 074°09'0 0.0
2015-Jul-25 11:32N 40°41' W 074°09'0 0.0
2015-Jul-25 10:32N 40°41' W 074°09'0 0.0
2015-Jul-25 09:32N 40°41' W 074°09'0 0.0
2015-Jul-25 08:32N 40°41' W 074°09'0 0.0
2015-Jul-25 07:32N 40°41' W 074°09'0 0.0
2015-Jul-25 06:32N 40°41' W 074°09'0 0.0
2015-Jul-25 05:32N 40°41' W 074°09'0 0.0
2015-Jul-25 04:32N 40°41' W 074°09'0 0.0
2015-Jul-25 03:32N 40°41' W 074°09'0 0.0
2015-Jul-25 02:32N 40°41' W 074°09'0 0.0
2015-Jul-25 01:32N 40°41' W 074°09'0 0.0
2015-Jul-25 00:32N 40°41' W 074°09'0 0.0
2015-Jul-24 23:32N 40°41' W 074°09'0 0.0
2015-Jul-24 22:32N 40°41' W 074°09'0 0.0
2015-Jul-24 21:32N 40°41' W 074°09'0 0.0
2015-Jul-24 20:32N 40°41' W 074°09'0 0.0
2015-Jul-24 19:32N 40°41' W 074°09'0 0.0
2015-Jul-24 18:32N 40°41' W 074°09'0 0.0
2015-Jul-24 17:32N 40°41' W 074°09'0 0.0
2015-Jul-24 16:29N 40°41' W 074°09'0 0.0
2015-Jul-24 15:34N 40°41' W 074°09'4 4.0
2015-Jul-24 14:33N 40°39' W 074°04'10 9.9
2015-Jul-24 13:33N 40°30' W 073°58'1211.6
2015-Jul-24 12:29N 40°27' W 073°42'1617.0
2015-Jul-24 11:34N 40°29' W 073°21'1717.3
2015-Jul-24 10:33N 40°30' W 072°58'1817.5
2015-Jul-24 09:33N 40°30' W 072°35'1717.2
2015-Jul-24 08:34N 40°31' W 072°13'1717.3
2015-Jul-24 07:33N 40°31' W 071°50'1717.2
2015-Jul-24 06:34N 40°31' W 071°27'1717.2
2015-Jul-24 05:33N 40°32' W 071°05'1717.3
2015-Jul-24 04:33N 40°32' W 070°42'1717.3
2015-Jul-24 03:33N 40°33' W 070°19'1817.5
2015-Jul-24 02:34N 40°33' W 069°56'1717.2
2015-Jul-24 01:33N 40°33' W 069°33'1717.0
2015-Jul-24 00:33N 40°34' W 069°11'1616.4
2015-Jul-23 23:33N 40°37' W 068°50'1816.4
2015-Jul-23 22:26N 40°44' W 068°27'31215.7
2015-Jul-23 02:33N 44°25' W 063°29'10 9.6
2015-Jul-23 01:33N 44°34' W 063°32'4 3.1
2015-Jul-23 00:22N 44°38' W 063°34'0 0.0
2015-Jul-22 23:22N 44°38' W 063°34'0 0.0
2015-Jul-22 22:25N 44°38' W 063°34'0 0.0
2015-Jul-22 21:25N 44°38' W 063°34'0 0.0
2015-Jul-22 20:25N 44°38' W 063°34'0 0.0
2015-Jul-22 19:28N 44°38' W 063°34'0 0.0
2015-Jul-22 18:28N 44°38' W 063°34'0 0.0
2015-Jul-22 17:28N 44°38' W 063°34'0 0.0
2015-Jul-22 16:31N 44°38' W 063°34'0 0.0
2015-Jul-22 15:31N 44°38' W 063°34'0 0.0
2015-Jul-22 14:28N 44°38' W 063°34'2 2.1
2015-Jul-22 13:33N 44°36' W 063°32'9 9.3
2015-Jul-22 12:33N 44°27' W 063°27'7 6.7
2015-Jul-22 11:32N 44°22' W 063°22'  
Track history (hours):
 
Tides and Currents Weather Stations Pressure Air Temp Water Temp Dewpoint Dewpoint Depression Visibility Wind Speed Wind Dir Waves Ship Positions

Zim Qingdao

Last reported at 2015-Jul-30 08:32 UTC. Time now 2015-Aug-04 22:01 UTC.
Position N 31°58' W 079°11'.

Length 260.61 m; beam 32.25 m; draft 12.6 m.

Type: Cargo ship. MMSI: 636012904.

Date/timePositionNaut miles runAvg speedWind from/ knotsBaromVisibWave heightAir tempDewpointWater temp
2015-Jul-30 08:32N 31°58' W 079°11'7414.6
2015-Jul-30 03:29N 31°58' W 080°38'1313.7
2015-Jul-30 02:33N 32°02' W 080°52'1110.6
2015-Jul-30 01:34N 32°05' W 081°04'5 4.9
2015-Jul-30 00:33N 32°08' W 081°08'0 0.5
2015-Jul-29 23:33N 32°08' W 081°09'0 0.0
2015-Jul-29 22:33N 32°08' W 081°09'0 0.0
2015-Jul-29 21:33N 32°08' W 081°09'0 0.0
2015-Jul-29 20:33N 32°08' W 081°09'0 0.0
2015-Jul-29 19:34N 32°08' W 081°09'0 0.0
2015-Jul-29 18:33N 32°08' W 081°09'0 0.0
2015-Jul-29 17:33N 32°08' W 081°09'0 0.0
2015-Jul-29 16:34N 32°08' W 081°09'0 0.0
2015-Jul-29 15:34N 32°08' W 081°09'0 0.0
2015-Jul-29 14:33N 32°08' W 081°09'0 0.0
2015-Jul-29 13:33N 32°08' W 081°09'0 0.0
2015-Jul-29 12:33N 32°08' W 081°09'0 0.0
2015-Jul-29 11:33N 32°08' W 081°09'0 0.0
2015-Jul-29 10:33N 32°08' W 081°09'0 0.0
2015-Jul-29 09:33N 32°08' W 081°09'0 0.0
2015-Jul-29 08:33N 32°08' W 081°09'0 0.0
2015-Jul-29 07:33N 32°08' W 081°09'0 0.0
2015-Jul-29 06:34N 32°08' W 081°09'0 0.0
2015-Jul-29 05:34N 32°08' W 081°09'0 0.0
2015-Jul-29 04:33N 32°08' W 081°09'0 0.0
2015-Jul-29 03:33N 32°08' W 081°09'0 0.0
2015-Jul-29 02:33N 32°08' W 081°09'0 0.0
2015-Jul-29 01:33N 32°08' W 081°09'0 0.0
2015-Jul-29 00:33N 32°08' W 081°09'0 0.0
2015-Jul-28 23:34N 32°08' W 081°09'0 0.0
2015-Jul-28 22:33N 32°08' W 081°09'0 0.0
2015-Jul-28 21:33N 32°08' W 081°09'0 0.0
2015-Jul-28 20:33N 32°08' W 081°09'0 0.0
2015-Jul-28 19:34N 32°08' W 081°09'0 0.0
2015-Jul-28 18:33N 32°08' W 081°09'0 0.0
2015-Jul-28 17:33N 32°08' W 081°09'5 4.7
2015-Jul-28 16:33N 32°05' W 081°05'8 7.6
2015-Jul-28 15:33N 32°03' W 080°56'1211.7
2015-Jul-28 14:33N 31°58' W 080°44'5 5.3
2015-Jul-28 13:32N 31°57' W 080°38'28415.4
2015-Jul-27 19:03N 34°31' W 075°52'1214.2
2015-Jul-27 18:12N 34°39' W 075°42'13712.8
2015-Jul-27 07:33N 36°55' W 075°56'1413.2
2015-Jul-27 06:31N 36°60' W 076°12'10 4.5
2015-Jul-27 04:17N 36°53' W 076°21'38 2.2
2015-Jul-26 11:20N 36°54' W 075°34'11116.2
2015-Jul-26 04:29N 38°31' W 074°24'1516.2
2015-Jul-26 03:34N 38°44' W 074°15'1715.9
2015-Jul-26 02:30N 38°60' W 074°07'3116.0
2015-Jul-26 00:33N 39°30' W 073°57'1615.8
2015-Jul-25 23:33N 39°45' W 073°52'1815.9
2015-Jul-25 22:25N 40°03' W 073°50'1315.6
2015-Jul-25 21:33N 40°16' W 073°49'1212.4
2015-Jul-25 20:33N 40°29' W 073°53'1313.2
2015-Jul-25 19:33N 40°39' W 074°04'4 3.7
2015-Jul-25 18:33N 40°41' W 074°08'1 0.5
2015-Jul-25 17:32N 40°41' W 074°09'0 0.0
2015-Jul-25 16:29N 40°41' W 074°09'0 0.0
2015-Jul-25 15:32N 40°41' W 074°09'0 0.0
2015-Jul-25 14:32N 40°41' W 074°09'0 0.0
2015-Jul-25 13:32N 40°41' W 074°09'0 0.0
2015-Jul-25 12:32N 40°41' W 074°09'0 0.0
2015-Jul-25 11:32N 40°41' W 074°09'0 0.0
2015-Jul-25 10:32N 40°41' W 074°09'0 0.0
2015-Jul-25 09:32N 40°41' W 074°09'0 0.0
2015-Jul-25 08:32N 40°41' W 074°09'0 0.0
2015-Jul-25 07:32N 40°41' W 074°09'0 0.0
2015-Jul-25 06:32N 40°41' W 074°09'0 0.0
2015-Jul-25 05:32N 40°41' W 074°09'0 0.0
2015-Jul-25 04:32N 40°41' W 074°09'0 0.0
2015-Jul-25 03:32N 40°41' W 074°09'0 0.0
2015-Jul-25 02:32N 40°41' W 074°09'0 0.0
2015-Jul-25 01:32N 40°41' W 074°09'0 0.0
2015-Jul-25 00:32N 40°41' W 074°09'0 0.0
2015-Jul-24 23:32N 40°41' W 074°09'0 0.0
2015-Jul-24 22:32N 40°41' W 074°09'0 0.0
2015-Jul-24 21:32N 40°41' W 074°09'0 0.0
2015-Jul-24 20:32N 40°41' W 074°09'0 0.0
2015-Jul-24 19:32N 40°41' W 074°09'0 0.0
2015-Jul-24 18:32N 40°41' W 074°09'0 0.0
2015-Jul-24 17:32N 40°41' W 074°09'0 0.0
2015-Jul-24 16:29N 40°41' W 074°09'0 0.0
2015-Jul-24 15:34N 40°41' W 074°09'4 4.0
2015-Jul-24 14:33N 40°39' W 074°04'10 9.9
2015-Jul-24 13:33N 40°30' W 073°58'1211.6
2015-Jul-24 12:29N 40°27' W 073°42'1617.0
2015-Jul-24 11:34N 40°29' W 073°21'1717.3
2015-Jul-24 10:33N 40°30' W 072°58'1817.5
2015-Jul-24 09:33N 40°30' W 072°35'1717.2
2015-Jul-24 08:34N 40°31' W 072°13'1717.3
2015-Jul-24 07:33N 40°31' W 071°50'1717.2
2015-Jul-24 06:34N 40°31' W 071°27'1717.2
2015-Jul-24 05:33N 40°32' W 071°05'1717.3
2015-Jul-24 04:33N 40°32' W 070°42'1717.3
2015-Jul-24 03:33N 40°33' W 070°19'1817.5
2015-Jul-24 02:34N 40°33' W 069°56'1717.2
2015-Jul-24 01:33N 40°33' W 069°33'1717.0
2015-Jul-24 00:33N 40°34' W 069°11'1616.4
2015-Jul-23 23:33N 40°37' W 068°50'1816.4
2015-Jul-23 22:26N 40°44' W 068°27'31215.7
2015-Jul-23 02:33N 44°25' W 063°29'10 9.6
2015-Jul-23 01:33N 44°34' W 063°32'4 3.1
2015-Jul-23 00:22N 44°38' W 063°34'0 0.0
2015-Jul-22 23:22N 44°38' W 063°34'0 0.0
2015-Jul-22 22:25N 44°38' W 063°34'0 0.0
2015-Jul-22 21:25N 44°38' W 063°34'0 0.0
2015-Jul-22 20:25N 44°38' W 063°34'0 0.0
2015-Jul-22 19:28N 44°38' W 063°34'0 0.0
2015-Jul-22 18:28N 44°38' W 063°34'0 0.0
2015-Jul-22 17:28N 44°38' W 063°34'0 0.0
2015-Jul-22 16:31N 44°38' W 063°34'0 0.0
2015-Jul-22 15:31N 44°38' W 063°34'0 0.0
2015-Jul-22 14:28N 44°38' W 063°34'2 2.1
2015-Jul-22 13:33N 44°36' W 063°32'9 9.3
2015-Jul-22 12:33N 44°27' W 063°27'7 6.7
2015-Jul-22 11:32N 44°22' W 063°22'  

Dump ship's entire track history